createdAt,value
2023-01-29T00:02:17.776Z,100952.97
2023-01-29T00:04:44.765Z,100953.88
2023-01-29T00:07:12.164Z,100950.44
2023-01-29T00:09:40.157Z,100954.75
2023-01-29T00:12:10.731Z,100959.13
2023-01-29T00:14:37.792Z,100959.13
2023-01-29T00:17:05.238Z,100943.41
2023-01-29T00:19:32.173Z,100965.94
2023-01-29T00:21:59.840Z,100952.03
2023-01-29T00:24:27.055Z,100953.84
2023-01-29T00:26:55.347Z,100946.06
2023-01-29T00:29:22.291Z,100958.25
2023-01-29T00:31:50.272Z,100947.88
2023-01-29T00:34:19.244Z,100952.28
2023-01-29T00:36:46.832Z,100951.41
2023-01-29T00:39:13.868Z,100961.88
2023-01-29T00:42:00.120Z,100955.78
2023-01-29T00:44:45.587Z,100955.81
2023-01-29T00:47:45.545Z,100961.06
2023-01-29T00:50:13.611Z,100957.63
2023-01-29T00:52:41.549Z,100961.09
2023-01-29T00:55:10.396Z,100968.94
2023-01-29T00:57:38.923Z,100955.09
2023-01-29T01:00:09.041Z,100951.63
2023-01-29T01:02:55.384Z,100969.03
2023-01-29T01:05:22.477Z,100965.59
2023-01-29T01:07:54.535Z,100970.81
2023-01-29T01:10:31.920Z,100960.41
2023-01-29T01:13:04.250Z,100961.22
2023-01-29T01:15:36.770Z,100953.41
2023-01-29T01:18:04.865Z,100961.22
2023-01-29T01:20:37.156Z,100948.16
2023-01-29T01:23:05.148Z,100959.56
2023-01-29T01:25:32.268Z,100954.34
2023-01-29T01:28:03.396Z,100957.03
2023-01-29T01:30:30.534Z,100956.09
2023-01-29T01:32:57.827Z,100954.31
2023-01-29T01:35:24.810Z,100953.44
2023-01-29T01:37:52.442Z,100952.63
2023-01-29T01:40:21.962Z,100945.69
2023-01-29T01:42:51.035Z,100949.13
2023-01-29T01:45:26.150Z,100947.41
2023-01-29T01:48:03.797Z,100949.13
2023-01-29T01:50:40.121Z,100951.66
2023-01-29T01:53:10.956Z,100949.06
2023-01-29T01:55:45.108Z,100961.13
2023-01-29T01:58:21.584Z,100956.81
2023-01-29T02:00:48.453Z,100961.22
2023-01-29T02:03:36.224Z,100962.03
2023-01-29T02:06:22.305Z,100955.13
2023-01-29T02:09:19.251Z,100959.53
2023-01-29T02:11:46.482Z,100962.16
2023-01-29T02:14:13.818Z,100970.84
2023-01-29T02:16:40.798Z,100968.25
2023-01-29T02:19:27.361Z,100958.66
2023-01-29T02:22:29.352Z,100974.31
2023-01-29T02:25:41.722Z,100967.41
2023-01-29T02:28:29.856Z,100978.63
2023-01-29T02:31:22.182Z,100962.09
2023-01-29T02:34:27.385Z,100976.00
2023-01-29T02:37:05.051Z,100976.84
2023-01-29T02:40:13.897Z,100981.97
2023-01-29T02:42:57.367Z,100978.56
2023-01-29T02:45:37.791Z,100972.41
2023-01-29T02:48:05.546Z,100974.97
2023-01-29T02:50:38.984Z,100980.09
2023-01-29T02:53:16.939Z,100978.41
2023-01-29T02:55:53.123Z,100979.25
2023-01-29T02:58:29.102Z,100974.84
2023-01-29T03:01:05.384Z,100987.91
2023-01-29T03:03:42.298Z,100983.63
2023-01-29T03:06:18.393Z,100997.44
2023-01-29T03:09:08.475Z,100986.22
2023-01-29T03:11:40.017Z,100997.53
2023-01-29T03:14:20.069Z,100994.06
2023-01-29T03:16:51.060Z,100992.31
2023-01-29T03:19:29.296Z,100987.91
2023-01-29T03:22:02.137Z,100982.63
2023-01-29T03:25:01.213Z,100990.44
2023-01-29T03:27:52.069Z,100982.63
2023-01-29T03:30:44.668Z,100985.31
2023-01-29T03:33:15.283Z,100992.38
2023-01-29T03:35:49.843Z,100984.56
2023-01-29T03:38:17.251Z,100981.94
2023-01-29T03:40:58.639Z,100996.78
2023-01-29T03:43:53.841Z,101000.28
2023-01-29T03:46:29.340Z,100995.06
2023-01-29T03:49:19.550Z,101000.28
2023-01-29T03:52:01.074Z,101009.78
2023-01-29T03:54:49.391Z,101012.50
2023-01-29T03:57:45.597Z,101020.31
2023-01-29T04:00:35.226Z,101019.41
2023-01-29T04:03:37.993Z,101007.25
2023-01-29T04:06:28.256Z,101018.50
2023-01-29T04:09:04.055Z,101029.72
2023-01-29T04:11:34.098Z,101022.81
2023-01-29T04:14:02.196Z,101025.47
2023-01-29T04:16:37.311Z,101025.47
2023-01-29T04:19:06.214Z,101027.25
2023-01-29T04:21:37.702Z,101032.47
2023-01-29T04:24:07.772Z,101015.09
2023-01-29T04:26:51.387Z,101035.97
2023-01-29T04:29:59.079Z,101023.78
2023-01-29T04:32:46.882Z,101024.59
2023-01-29T04:35:45.426Z,101029.81
2023-01-29T04:38:23.998Z,101024.63
2023-01-29T04:41:04.201Z,101021.97
2023-01-29T04:43:54.529Z,101033.22
2023-01-29T04:46:34.153Z,101034.84
2023-01-29T04:49:07.378Z,101036.66
2023-01-29T04:51:51.268Z,101021.91
2023-01-29T04:54:21.279Z,101029.72
2023-01-29T04:57:27.037Z,101039.25
2023-01-29T05:00:03.884Z,101040.13
2023-01-29T05:02:34.492Z,101036.66
2023-01-29T05:05:05.993Z,101040.09
2023-01-29T05:07:36.209Z,101048.84
2023-01-29T05:10:07.587Z,101049.75
2023-01-29T05:12:38.192Z,101051.47
2023-01-29T05:15:13.695Z,101047.94
2023-01-29T05:17:42.596Z,101038.28
2023-01-29T05:20:13.198Z,101054.91
2023-01-29T05:22:42.804Z,101056.72
2023-01-29T05:25:28.303Z,101043.69
2023-01-29T05:28:07.307Z,101055.06
2023-01-29T05:30:38.653Z,101056.78
2023-01-29T05:33:15.622Z,101067.34
2023-01-29T05:35:43.396Z,101073.47
2023-01-29T05:38:13.119Z,101066.53
2023-01-29T05:40:40.851Z,101070.94
2023-01-29T05:43:19.327Z,101073.47
2023-01-29T05:45:58.256Z,101073.44
2023-01-29T05:48:28.993Z,101084.81
2023-01-29T05:51:05.411Z,101083.94
2023-01-29T05:53:34.069Z,101076.06
2023-01-29T05:56:04.948Z,101080.38
2023-01-29T05:58:35.207Z,101087.38
2023-01-29T06:01:23.933Z,101098.66
2023-01-29T06:03:51.935Z,101096.91
2023-01-29T06:09:05.355Z,101103.88
2023-01-29T06:11:32.312Z,101086.47
2023-01-29T06:13:59.798Z,101102.19
2023-01-29T06:16:27.083Z,101095.28
2023-01-29T06:18:54.657Z,101099.72
2023-01-29T06:21:22.299Z,101098.13
2023-01-29T06:23:54.095Z,101101.75
2023-01-29T06:26:22.290Z,101101.75
2023-01-29T06:28:50.022Z,101092.19
2023-01-29T06:31:39.927Z,101102.69
2023-01-29T06:34:08.757Z,101087.88
2023-01-29T06:36:35.801Z,101086.28
2023-01-29T06:39:04.607Z,101095.00
2023-01-29T06:41:31.746Z,101103.72
2023-01-29T06:43:59.147Z,101082.09
2023-01-29T06:46:26.283Z,101097.91
2023-01-29T06:48:53.603Z,101098.81
2023-01-29T06:51:23.069Z,101103.28
2023-01-29T06:53:50.641Z,101111.22
2023-01-29T06:56:17.781Z,101114.75
2023-01-29T06:58:47.829Z,101099.06
2023-01-29T07:01:34.219Z,101108.63
2023-01-29T07:04:23.752Z,101097.19
2023-01-29T07:06:51.905Z,101109.50
2023-01-29T07:09:25.261Z,101104.25
2023-01-29T07:11:54.747Z,101099.09
2023-01-29T07:14:25.396Z,101121.69
2023-01-29T07:17:04.502Z,101104.19
2023-01-29T07:19:34.263Z,101107.63
2023-01-29T07:22:04.079Z,101123.44
2023-01-29T07:24:33.467Z,101110.34
2023-01-29T07:27:01.600Z,101125.28
2023-01-29T07:29:30.899Z,101127.13
2023-01-29T07:31:58.077Z,101125.31
2023-01-29T07:34:25.680Z,101131.53
2023-01-29T07:36:54.265Z,101129.00
2023-01-29T07:39:24.692Z,101122.84
2023-01-29T07:41:51.861Z,101129.94
2023-01-29T07:44:19.413Z,101142.34
2023-01-29T07:46:46.485Z,101124.22
2023-01-29T07:49:16.443Z,101140.88
2023-01-29T07:51:43.588Z,101131.41
2023-01-29T07:54:16.690Z,101135.84
2023-01-29T07:56:44.167Z,101135.84
2023-01-29T07:59:20.702Z,101121.94
2023-01-29T08:01:47.895Z,101117.53
2023-01-29T08:04:15.379Z,101128.06
2023-01-29T08:06:44.781Z,101132.47
2023-01-29T08:09:16.383Z,101114.34
2023-01-29T08:11:43.574Z,101133.63
2023-01-29T08:14:13.510Z,101117.06
2023-01-29T08:16:40.661Z,101130.09
2023-01-29T08:19:11.672Z,101099.72
2023-01-29T08:21:38.737Z,101124.03
2023-01-29T08:24:06.622Z,101142.28
2023-01-29T08:26:34.092Z,101152.78
2023-01-29T08:29:08.691Z,101139.72
2023-01-29T08:31:36.175Z,101137.03
2023-01-29T08:34:03.800Z,101142.25
2023-01-29T08:36:30.905Z,101148.63
2023-01-29T08:39:03.308Z,101135.63
2023-01-29T08:41:31.054Z,101140.09
2023-01-29T08:44:01.287Z,101115.75
2023-01-29T08:46:28.896Z,101126.31
2023-01-29T08:48:56.672Z,101118.53
2023-01-29T08:51:26.230Z,101132.38
2023-01-29T08:53:54.077Z,101124.63
2023-01-29T08:56:21.542Z,101121.22
2023-01-29T08:58:51.691Z,101122.09
2023-01-29T09:01:18.641Z,101124.72
2023-01-29T09:03:46.583Z,101129.91
2023-01-29T09:06:21.600Z,101132.53
2023-01-29T09:08:53.164Z,101126.38
2023-01-29T09:11:20.291Z,101111.44
2023-01-29T09:13:47.686Z,101119.38
2023-01-29T09:16:15.251Z,101118.50
2023-01-29T09:18:43.122Z,101103.69
2023-01-29T09:21:10.722Z,101098.53
2023-01-29T09:23:39.057Z,101123.78
2023-01-29T09:26:08.355Z,101122.88
2023-01-29T09:28:36.202Z,101109.84
2023-01-29T09:31:04.272Z,101104.75
2023-01-29T09:33:32.634Z,101104.75
2023-01-29T09:35:59.928Z,101115.31
2023-01-29T09:38:27.690Z,101108.38
2023-01-29T09:41:04.183Z,101115.31
2023-01-29T09:43:44.118Z,101118.75
2023-01-29T09:46:18.356Z,101108.28
2023-01-29T09:48:48.730Z,101103.91
2023-01-29T09:51:29.390Z,101109.09
2023-01-29T09:57:20.338Z,101127.31
2023-01-29T09:59:50.740Z,101118.59
2023-01-29T10:02:43.633Z,101113.44
2023-01-29T10:05:59.441Z,101087.31
2023-01-29T10:11:53.342Z,101116.88
2023-01-29T10:14:49.165Z,101118.72
2023-01-29T10:17:40.953Z,101103.13
2023-01-29T10:20:42.009Z,101117.91
2023-01-29T10:23:26.569Z,101114.44
2023-01-29T10:25:54.637Z,101105.63
2023-01-29T10:28:42.821Z,101091.66
2023-01-29T10:31:20.855Z,101112.50
2023-01-29T10:34:03.226Z,101112.47
2023-01-29T10:36:38.759Z,101099.41
2023-01-29T10:39:06.213Z,101098.69
2023-01-29T10:41:42.705Z,101101.41
2023-01-29T10:44:36.073Z,101095.19
2023-01-29T10:48:09.450Z,101094.25
2023-01-29T10:50:49.214Z,101093.34
2023-01-29T10:53:48.968Z,101085.56
2023-01-29T10:56:23.589Z,101085.50
2023-01-29T10:58:55.272Z,101087.31
2023-01-29T11:01:23.161Z,101055.88
2023-01-29T11:04:01.823Z,101068.94
2023-01-29T11:06:35.983Z,101082.19
2023-01-29T11:09:26.564Z,101074.34
2023-01-29T11:12:14.301Z,101069.28
2023-01-29T11:14:51.976Z,101059.69
2023-01-29T11:17:24.058Z,101060.47
2023-01-29T11:20:49.997Z,101057.84
2023-01-29T11:23:35.273Z,101068.38
2023-01-29T11:26:09.427Z,101061.44
2023-01-29T11:28:51.529Z,101057.19
2023-01-29T11:31:38.918Z,101071.13
2023-01-29T11:34:34.618Z,101062.41
2023-01-29T11:37:15.961Z,101060.59
2023-01-29T11:39:47.204Z,101061.44
2023-01-29T11:42:22.433Z,101064.03
2023-01-29T11:44:50.051Z,101062.31
2023-01-29T11:47:19.135Z,101066.72
2023-01-29T11:49:48.756Z,101058.81
2023-01-29T11:52:19.103Z,101050.91
2023-01-29T11:54:55.472Z,101046.50
2023-01-29T11:57:26.142Z,101064.84
2023-01-29T11:59:58.347Z,101063.09
2023-01-29T12:02:38.387Z,101059.59
2023-01-29T12:05:17.536Z,101054.34
2023-01-29T12:07:49.069Z,101063.13
2023-01-29T12:10:35.771Z,101059.63
2023-01-29T12:13:12.206Z,101064.03
2023-01-29T12:15:41.394Z,101055.31
2023-01-29T12:18:44.426Z,101065.81
2023-01-29T12:21:23.056Z,101047.50
2023-01-29T12:24:04.487Z,101065.81
2023-01-29T12:26:44.786Z,101049.28
2023-01-29T12:29:31.986Z,101071.09
2023-01-29T12:32:05.807Z,101075.47
2023-01-29T12:35:02.789Z,101068.47
2023-01-29T12:37:56.938Z,101068.41
2023-01-29T12:40:33.174Z,101060.53
2023-01-29T12:43:09.930Z,101047.47
2023-01-29T12:45:37.717Z,101073.66
2023-01-29T12:48:14.550Z,101063.19
2023-01-29T12:50:41.719Z,101057.06
2023-01-29T12:53:29.901Z,101064.97
2023-01-29T12:56:05.392Z,101064.97
2023-01-29T12:58:36.727Z,101075.44
2023-01-29T13:01:12.543Z,101050.97
2023-01-29T13:03:56.320Z,101062.25
2023-01-29T13:06:29.480Z,101058.75
2023-01-29T13:09:06.196Z,101069.16
2023-01-29T13:11:50.188Z,101059.63
2023-01-29T13:14:23.148Z,101070.16
2023-01-29T13:17:11.319Z,101056.19
2023-01-29T13:19:45.388Z,101052.75
2023-01-29T13:22:20.566Z,101064.97
2023-01-29T13:25:03.571Z,101065.00
2023-01-29T13:27:34.146Z,101067.63
2023-01-29T13:30:04.791Z,101060.63
2023-01-29T13:32:34.626Z,101068.44
2023-01-29T13:35:06.694Z,101075.41
2023-01-29T13:37:39.760Z,101070.16
2023-01-29T13:40:15.688Z,101064.88
2023-01-29T13:42:49.028Z,101068.34
2023-01-29T13:45:25.503Z,101063.84
2023-01-29T13:47:57.533Z,101064.63
2023-01-29T13:50:39.615Z,101068.97
2023-01-29T13:53:11.506Z,101072.41
2023-01-29T13:55:40.794Z,101082.06
2023-01-29T13:58:33.554Z,101076.75
2023-01-29T14:01:05.783Z,101080.28
2023-01-29T14:04:03.406Z,101089.03
2023-01-29T14:06:39.062Z,101094.19
2023-01-29T14:09:34.788Z,101097.66
2023-01-29T14:12:25.302Z,101104.63
2023-01-29T14:15:01.617Z,101096.78
2023-01-29T14:17:29.416Z,101096.78
2023-01-29T14:20:20.956Z,101102.91
2023-01-29T14:23:14.856Z,101094.16
2023-01-29T14:25:52.184Z,101094.13
2023-01-29T14:28:29.163Z,101088.91
2023-01-29T14:30:56.742Z,101097.53
2023-01-29T14:33:41.874Z,101085.28
2023-01-29T14:36:14.525Z,101087.84
2023-01-29T14:38:52.523Z,101093.06
2023-01-29T14:41:31.637Z,101093.03
2023-01-29T14:44:43.992Z,101096.53
2023-01-29T14:47:32.769Z,101100.97
2023-01-29T14:50:03.305Z,101106.19
2023-01-29T14:52:42.283Z,101103.63
2023-01-29T14:55:21.043Z,101094.00
2023-01-29T14:57:49.419Z,101102.78
2023-01-29T15:00:27.996Z,101105.44
2023-01-29T15:03:02.017Z,101110.66
2023-01-29T15:05:35.860Z,101113.28
2023-01-29T15:08:31.421Z,101113.19
2023-01-29T15:11:28.298Z,101107.97
2023-01-29T15:14:06.579Z,101118.41
2023-01-29T15:16:49.204Z,101104.41
2023-01-29T15:19:32.261Z,101110.59
2023-01-29T15:22:06.646Z,101109.69
2023-01-29T15:24:33.724Z,101122.72
2023-01-29T15:27:02.380Z,101125.34
2023-01-29T15:29:31.956Z,101130.53
2023-01-29T15:32:02.033Z,101122.72
2023-01-29T15:34:29.299Z,101116.66
2023-01-29T15:36:58.064Z,101121.81
2023-01-29T15:39:27.168Z,101125.28
2023-01-29T15:42:14.393Z,101123.56
2023-01-29T15:44:45.790Z,101127.94
2023-01-29T15:47:14.381Z,101123.50
2023-01-29T15:49:42.296Z,101111.25
2023-01-29T15:52:21.998Z,101133.97
2023-01-29T15:54:52.078Z,101127.88
2023-01-29T15:57:26.306Z,101126.09
2023-01-29T15:59:57.343Z,101133.06
2023-01-29T16:02:45.851Z,101132.16
2023-01-29T16:05:21.481Z,101139.13
2023-01-29T16:07:51.153Z,101133.84
2023-01-29T16:10:22.229Z,101130.38
2023-01-29T16:12:51.770Z,101132.97
2023-01-29T16:15:40.341Z,101132.09
2023-01-29T16:18:47.716Z,101119.00
2023-01-29T16:21:33.761Z,101131.16
2023-01-29T16:24:10.319Z,101125.94
2023-01-29T16:26:44.367Z,101140.75
2023-01-29T16:32:01.955Z,101136.38
2023-01-29T16:34:33.112Z,101138.09
2023-01-29T16:37:11.163Z,101131.97
2023-01-29T16:39:45.052Z,101133.75
2023-01-29T16:42:20.003Z,101137.22
2023-01-29T16:45:02.479Z,101123.22
2023-01-29T16:47:44.506Z,101124.94
2023-01-29T16:50:46.166Z,101131.91
2023-01-29T16:53:23.474Z,101138.84
2023-01-29T16:55:52.900Z,101131.84
2023-01-29T16:58:23.838Z,101138.84
2023-01-29T17:00:55.070Z,101143.22
2023-01-29T17:03:41.516Z,101141.44
2023-01-29T17:06:33.868Z,101143.22
2023-01-29T17:09:01.522Z,101151.06
2023-01-29T17:11:41.883Z,101151.09
2023-01-29T17:14:13.996Z,101155.44
2023-01-29T17:16:56.787Z,101147.56
2023-01-29T17:19:25.456Z,101145.84
2023-01-29T17:21:54.393Z,101137.13
2023-01-29T17:24:21.583Z,101156.31
2023-01-29T17:26:49.479Z,101149.34
2023-01-29T17:29:31.915Z,101162.44
2023-01-29T17:32:02.251Z,101162.44
2023-01-29T17:34:29.454Z,101152.81
2023-01-29T17:36:57.432Z,101162.44
2023-01-29T17:39:25.732Z,101163.34
2023-01-29T17:41:58.158Z,101158.88
2023-01-29T17:44:28.709Z,101172.03
2023-01-29T17:46:56.292Z,101162.41
2023-01-29T17:49:27.690Z,101165.91
2023-01-29T17:51:58.618Z,101170.28
2023-01-29T17:54:30.643Z,101167.63
2023-01-29T17:57:01.240Z,101162.38
2023-01-29T17:59:34.004Z,101168.47
2023-01-29T18:02:02.077Z,101164.97
2023-01-29T18:04:29.154Z,101165.78
2023-01-29T18:07:04.707Z,101185.00
2023-01-29T18:09:32.348Z,101180.63
2023-01-29T18:12:00.049Z,101169.28
2023-01-29T18:14:27.858Z,101166.66
2023-01-29T18:16:57.272Z,101185.84
2023-01-29T18:19:31.189Z,101180.63
2023-01-29T18:21:58.615Z,101160.38
2023-01-29T18:24:26.749Z,101177.00
2023-01-29T18:26:54.138Z,101178.75
2023-01-29T18:29:21.975Z,101178.72
2023-01-29T18:31:50.807Z,101175.25
2023-01-29T18:34:18.624Z,101184.94
2023-01-29T18:36:52.819Z,101176.19
2023-01-29T18:39:23.341Z,101176.13
2023-01-29T18:41:52.251Z,101180.44
2023-01-29T18:44:19.454Z,101177.84
2023-01-29T18:46:49.779Z,101177.84
2023-01-29T18:49:16.895Z,101186.50
2023-01-29T18:51:45.685Z,101189.97
2023-01-29T18:54:15.798Z,101181.22
2023-01-29T18:57:06.188Z,101196.97
2023-01-29T18:59:32.623Z,101194.38
2023-01-29T19:02:01.016Z,101189.94
2023-01-29T19:04:28.022Z,101183.81
2023-01-29T19:06:55.612Z,101191.69
2023-01-29T19:09:26.635Z,101196.09
2023-01-29T19:11:54.126Z,101198.66
2023-01-29T19:14:23.753Z,101188.19
2023-01-29T19:16:51.161Z,101195.16
2023-01-29T19:19:18.823Z,101208.28
2023-01-29T19:21:46.382Z,101194.31
2023-01-29T19:24:14.823Z,101205.59
2023-01-29T19:26:42.411Z,101194.25
2023-01-29T19:29:10.549Z,101198.66
2023-01-29T19:31:38.098Z,101213.53
2023-01-29T19:34:05.361Z,101205.66
2023-01-29T19:36:32.922Z,101188.19
2023-01-29T19:39:00.181Z,101195.19
2023-01-29T19:41:27.844Z,101201.28
2023-01-29T19:43:55.057Z,101202.03
2023-01-29T19:46:22.656Z,101183.72
2023-01-29T19:48:50.675Z,101185.50
2023-01-29T19:51:21.520Z,101197.81
2023-01-29T19:53:48.783Z,101183.78
2023-01-29T19:56:17.783Z,101184.63
2023-01-29T19:58:45.016Z,101193.34
2023-01-29T20:01:20.749Z,101201.22
2023-01-29T20:03:50.089Z,101176.66
2023-01-29T20:06:32.268Z,101194.22
2023-01-29T20:09:02.279Z,101186.34
2023-01-29T20:11:30.904Z,101200.31
2023-01-29T20:13:58.957Z,101183.66
2023-01-29T20:16:26.837Z,101190.66
2023-01-29T20:18:54.211Z,101187.94
2023-01-29T20:21:22.534Z,101181.69
2023-01-29T20:23:50.853Z,101200.09
2023-01-29T20:26:19.683Z,101181.78
2023-01-29T20:28:49.473Z,101192.22
2023-01-29T20:31:17.020Z,101185.34
2023-01-29T20:33:44.516Z,101187.97
2023-01-29T20:36:13.780Z,101188.81
2023-01-29T20:38:41.167Z,101187.97
2023-01-29T20:41:19.374Z,101187.97
2023-01-29T20:43:47.431Z,101193.25
2023-01-29T20:46:14.982Z,101188.81
2023-01-29T20:48:42.595Z,101199.31
2023-01-29T20:51:15.766Z,101193.19
2023-01-29T20:53:46.023Z,101194.00
2023-01-29T20:56:15.313Z,101180.88
2023-01-29T20:58:42.834Z,101191.38
2023-01-29T21:01:15.284Z,101197.53
2023-01-29T21:03:46.392Z,101179.16
2023-01-29T21:06:23.459Z,101190.53
2023-01-29T21:08:52.094Z,101194.06
2023-01-29T21:11:21.335Z,101194.94
2023-01-29T21:13:48.409Z,101193.13
2023-01-29T21:16:16.038Z,101187.88
2023-01-29T21:18:48.349Z,101206.25
2023-01-29T21:21:35.970Z,101192.22
2023-01-29T21:24:03.214Z,101189.59
2023-01-29T21:26:30.590Z,101197.47
2023-01-29T21:28:57.623Z,101185.25
2023-01-29T21:31:28.915Z,101192.31
2023-01-29T21:33:55.987Z,101196.66
2023-01-29T21:36:23.441Z,101190.56
2023-01-29T21:38:50.432Z,101180.03
2023-01-29T21:41:27.011Z,101194.00
2023-01-29T21:43:54.064Z,101185.19
2023-01-29T21:46:21.563Z,101189.50
2023-01-29T21:48:48.550Z,101181.63
2023-01-29T21:51:24.118Z,101186.97
2023-01-29T21:53:51.223Z,101180.00
2023-01-29T21:56:19.770Z,101177.41
2023-01-29T21:58:50.423Z,101174.78
2023-01-29T22:01:38.114Z,101172.19
2023-01-29T22:04:17.206Z,101172.16
2023-01-29T22:06:47.583Z,101165.16
2023-01-29T22:09:16.287Z,101173.03
2023-01-29T22:11:43.746Z,101175.66
2023-01-29T22:14:13.260Z,101175.66
2023-01-29T22:16:40.714Z,101161.72
2023-01-29T22:19:07.735Z,101169.56
2023-01-29T22:21:36.029Z,101171.25
2023-01-29T22:24:07.960Z,101166.94
2023-01-29T22:26:39.664Z,101173.91
2023-01-29T22:29:07.410Z,101161.69
2023-01-29T22:31:38.366Z,101162.53
2023-01-29T22:34:09.588Z,101161.78
2023-01-29T22:36:39.348Z,101168.78
2023-01-29T22:39:09.127Z,101163.50
2023-01-29T22:44:22.018Z,101146.13
2023-01-29T22:49:50.369Z,101150.53
2023-01-29T22:55:35.648Z,101147.84
2023-01-29T22:58:12.159Z,101144.41
2023-01-29T23:00:47.825Z,101143.50
2023-01-29T23:03:19.509Z,101154.03
2023-01-29T23:05:47.732Z,101144.41
2023-01-29T23:22:15.470Z,101141.88
2023-01-29T23:24:43.683Z,101141.78
2023-01-29T23:27:16.483Z,101142.63
2023-01-29T23:29:47.707Z,101132.19
2023-01-29T23:32:17.563Z,101135.69
2023-01-29T23:34:47.670Z,101129.56
2023-01-29T23:37:15.768Z,101117.34
2023-01-29T23:39:46.383Z,101124.31
2023-01-29T23:42:13.425Z,101119.06
2023-01-29T23:47:25.106Z,101111.22
2023-01-29T23:49:53.342Z,101119.09
2023-01-29T23:52:21.007Z,101113.00
2023-01-29T23:54:52.817Z,101112.06
2023-01-29T23:57:22.130Z,101107.75
2023-01-29T23:59:49.890Z,101112.09
